createdAt,value
2022-11-14T00:01:11.711Z,101267.34
2022-11-14T00:03:38.782Z,101270.28
2022-11-14T00:06:07.335Z,101253.56
2022-11-14T00:08:35.100Z,101263.63
2022-11-14T00:11:02.380Z,101270.28
2022-11-14T00:13:29.343Z,101273.84
2022-11-14T00:15:56.280Z,101261.19
2022-11-14T00:18:23.905Z,101273.13
2022-11-14T00:20:52.742Z,101262.31
2022-11-14T00:23:21.256Z,101255.84
2022-11-14T00:25:48.417Z,101249.78
2022-11-14T00:28:15.470Z,101256.44
2022-11-14T00:30:42.419Z,101252.91
2022-11-14T00:33:09.317Z,101244.41
2022-11-14T00:35:36.241Z,101248.19
2022-11-14T00:38:03.110Z,101242.06
2022-11-14T00:40:29.974Z,101238.94
2022-11-14T00:42:56.865Z,101235.66
2022-11-14T00:45:24.549Z,101237.31
2022-11-14T00:47:51.501Z,101230.56
2022-11-14T00:50:18.496Z,101233.28
2022-11-14T00:52:45.369Z,101228.53
2022-11-14T00:55:12.265Z,101232.22
2022-11-14T00:57:39.164Z,101220.88
2022-11-14T01:00:09.126Z,101224.28
2022-11-14T01:02:36.199Z,101213.03
2022-11-14T01:05:03.164Z,101203.34
2022-11-14T01:07:30.067Z,101217.44
2022-11-14T01:09:57.038Z,101231.13
2022-11-14T01:12:24.116Z,101216.50
2022-11-14T01:14:50.991Z,101213.50
2022-11-14T01:17:17.906Z,101206.84
2022-11-14T01:19:44.804Z,101197.06
2022-11-14T01:22:11.720Z,101209.56
2022-11-14T01:24:38.662Z,101206.16
2022-11-14T01:27:05.561Z,101202.31
2022-11-14T01:29:32.412Z,101209.69
2022-11-14T01:31:59.310Z,101209.06
2022-11-14T01:34:26.657Z,101204.03
2022-11-14T01:36:53.611Z,101202.53
2022-11-14T01:39:20.505Z,101185.53
2022-11-14T01:41:47.486Z,101190.22
2022-11-14T01:44:40.481Z,101171.31
2022-11-14T01:47:07.400Z,101179.72
2022-11-14T01:49:42.087Z,101176.22
2022-11-14T01:52:22.694Z,101171.03
2022-11-14T01:54:56.071Z,101168.78
2022-11-14T01:57:33.703Z,101175.50
2022-11-14T02:00:08.105Z,101170.19
2022-11-14T02:02:35.775Z,101164.63
2022-11-14T02:05:13.354Z,101177.19
2022-11-14T02:07:41.646Z,101162.41
2022-11-14T02:10:17.541Z,101153.75
2022-11-14T02:12:45.625Z,101152.31
2022-11-14T02:15:13.561Z,101152.06
2022-11-14T02:17:42.671Z,101149.84
2022-11-14T02:20:12.689Z,101156.66
2022-11-14T02:22:42.066Z,101135.53
2022-11-14T02:25:10.976Z,101139.81
2022-11-14T02:27:39.550Z,101133.16
2022-11-14T02:30:17.740Z,101130.56
2022-11-14T02:33:09.356Z,101125.56
2022-11-14T02:35:31.734Z,101127.47
2022-11-14T02:37:58.644Z,101121.03
2022-11-14T02:40:25.574Z,101118.44
2022-11-14T02:42:52.466Z,101119.63
2022-11-14T02:45:20.867Z,101116.53
2022-11-14T02:47:47.909Z,101112.38
2022-11-14T02:50:15.234Z,101121.09
2022-11-14T02:52:42.135Z,101128.88
2022-11-14T02:55:10.076Z,101120.25
2022-11-14T02:57:37.087Z,101127.81
2022-11-14T03:00:09.964Z,101117.31
2022-11-14T03:02:40.398Z,101117.31
2022-11-14T03:05:07.920Z,101112.59
2022-11-14T03:07:34.880Z,101108.59
2022-11-14T03:10:02.204Z,101109.16
2022-11-14T03:12:29.147Z,101111.16
2022-11-14T03:14:56.070Z,101103.59
2022-11-14T03:17:24.747Z,101105.97
2022-11-14T03:19:51.692Z,101104.78
2022-11-14T03:22:18.590Z,101096.63
2022-11-14T03:24:45.491Z,101098.66
2022-11-14T03:27:12.367Z,101102.97
2022-11-14T03:29:39.254Z,101095.97
2022-11-14T03:32:06.177Z,101087.38
2022-11-14T03:34:33.601Z,101082.03
2022-11-14T03:37:00.616Z,101082.03
2022-11-14T03:39:28.233Z,101079.94
2022-11-14T03:41:55.111Z,101073.66
2022-11-14T03:44:22.336Z,101081.72
2022-11-14T03:46:49.269Z,101084.88
2022-11-14T03:49:16.202Z,101091.81
2022-11-14T03:51:43.123Z,101088.19
2022-11-14T03:54:10.053Z,101099.28
2022-11-14T03:56:36.989Z,101089.19
2022-11-14T03:59:03.974Z,101089.03
2022-11-14T04:01:30.944Z,101096.41
2022-11-14T04:03:57.924Z,101096.72
2022-11-14T04:06:24.815Z,101093.66
2022-11-14T04:08:56.663Z,101087.34
2022-11-14T04:11:23.631Z,101086.28
2022-11-14T04:13:50.525Z,101085.47
2022-11-14T04:16:17.437Z,101087.06
2022-11-14T04:18:44.351Z,101085.25
2022-11-14T04:21:11.233Z,101078.94
2022-11-14T04:23:38.141Z,101081.97
2022-11-14T04:26:05.210Z,101068.34
2022-11-14T04:28:32.408Z,101061.22
2022-11-14T04:31:00.406Z,101066.09
2022-11-14T04:33:27.653Z,101078.06
2022-11-14T04:35:54.555Z,101066.81
2022-11-14T04:38:21.467Z,101061.25
2022-11-14T04:40:54.368Z,101065.25
2022-11-14T04:43:21.565Z,101058.00
2022-11-14T04:45:48.725Z,101044.41
2022-11-14T04:48:15.665Z,101055.06
2022-11-14T04:50:42.761Z,101044.41
2022-11-14T04:53:09.681Z,101041.75
2022-11-14T04:55:36.633Z,101047.22
2022-11-14T04:58:03.726Z,101045.13
2022-11-14T05:00:30.643Z,101051.72
2022-11-14T05:03:00.170Z,101046.56
2022-11-14T05:05:27.286Z,101037.38
2022-11-14T05:07:55.217Z,101039.97
2022-11-14T05:10:22.208Z,101036.06
2022-11-14T05:12:49.151Z,101026.03
2022-11-14T05:15:16.111Z,101035.00
2022-11-14T05:17:42.978Z,101035.72
2022-11-14T05:20:10.852Z,101033.84
2022-11-14T05:22:37.839Z,101035.94
2022-11-14T05:25:06.494Z,101030.16
2022-11-14T05:27:33.494Z,101022.00
2022-11-14T05:30:00.540Z,101028.38
2022-11-14T05:32:27.407Z,101026.84
2022-11-14T05:34:54.289Z,101018.19
2022-11-14T05:37:21.223Z,101023.38
2022-11-14T05:39:48.126Z,101010.88
2022-11-14T05:42:15.146Z,101021.81
2022-11-14T05:44:42.044Z,101016.16
2022-11-14T05:47:08.955Z,101015.50
2022-11-14T05:49:35.840Z,101014.75
2022-11-14T05:52:02.756Z,101007.50
2022-11-14T05:54:29.660Z,101016.25
2022-11-14T05:56:56.548Z,101018.56
2022-11-14T05:59:23.496Z,101024.63
2022-11-14T06:01:50.383Z,101021.50
2022-11-14T06:04:17.259Z,101018.97
2022-11-14T06:06:44.220Z,101015.28
2022-11-14T06:09:11.510Z,101015.03
2022-11-14T06:11:38.573Z,101022.25
2022-11-14T06:14:10.455Z,101016.19
2022-11-14T06:16:37.958Z,101011.75
2022-11-14T06:19:05.410Z,101011.88
2022-11-14T06:21:32.306Z,101021.09
2022-11-14T06:23:59.245Z,101032.91
2022-11-14T06:26:30.396Z,101035.06
2022-11-14T06:28:58.886Z,101025.53
2022-11-14T06:31:26.532Z,101029.38
2022-11-14T06:33:53.709Z,101021.75
2022-11-14T06:36:20.899Z,101024.28
2022-11-14T06:38:47.793Z,101021.22
2022-11-14T06:41:20.934Z,101017.28
2022-11-14T06:43:51.204Z,101017.03
2022-11-14T06:46:20.695Z,101021.59
2022-11-14T06:48:49.514Z,101021.19
2022-11-14T06:51:17.999Z,101028.50
2022-11-14T06:53:45.734Z,101023.66
2022-11-14T06:56:16.568Z,101012.88
2022-11-14T06:58:47.979Z,101020.38
2022-11-14T07:01:21.858Z,101018.72
2022-11-14T07:03:49.872Z,101027.66
2022-11-14T07:06:21.671Z,101026.63
2022-11-14T07:08:48.860Z,101029.97
2022-11-14T07:11:23.017Z,101032.50
2022-11-14T07:14:01.329Z,101035.50
2022-11-14T07:16:37.475Z,101028.34
2022-11-14T07:19:09.097Z,101036.53
2022-11-14T07:21:36.678Z,101026.97
2022-11-14T07:24:03.956Z,101033.16
2022-11-14T07:26:30.905Z,101034.03
2022-11-14T07:29:02.140Z,101031.00
2022-11-14T07:31:29.839Z,101034.19
2022-11-14T07:33:56.802Z,101041.38
2022-11-14T07:36:24.279Z,101034.88
2022-11-14T07:38:51.312Z,101044.81
2022-11-14T07:41:18.418Z,101045.75
2022-11-14T07:43:45.751Z,101044.00
2022-11-14T07:46:15.682Z,101048.38
2022-11-14T07:48:43.766Z,101050.28
2022-11-14T07:51:17.109Z,101054.19
2022-11-14T07:53:44.512Z,101061.00
2022-11-14T07:56:11.690Z,101064.88
2022-11-14T07:58:40.661Z,101058.69
2022-11-14T08:01:10.723Z,101051.28
2022-11-14T08:03:42.261Z,101042.56
2022-11-14T08:06:15.104Z,101042.59
2022-11-14T08:08:42.178Z,101033.31
2022-11-14T08:11:09.622Z,101035.84
2022-11-14T08:13:36.519Z,101025.94
2022-11-14T08:16:12.784Z,101021.31
2022-11-14T08:18:41.405Z,101013.66
2022-11-14T08:21:08.555Z,101012.44
2022-11-14T08:23:35.519Z,101014.69
2022-11-14T08:26:02.462Z,101007.41
2022-11-14T08:28:29.941Z,101006.03
2022-11-14T08:31:04.726Z,101006.69
2022-11-14T08:33:32.355Z,101000.53
2022-11-14T08:36:03.334Z,100999.38
2022-11-14T08:38:32.632Z,100997.75
2022-11-14T08:41:04.512Z,101000.16
2022-11-14T08:43:32.550Z,100986.22
2022-11-14T08:46:05.153Z,100987.22
2022-11-14T08:48:33.255Z,100987.06
2022-11-14T08:51:07.469Z,100985.41
2022-11-14T08:53:35.286Z,100982.13
2022-11-14T08:56:02.923Z,100981.44
2022-11-14T08:58:32.342Z,100972.38
2022-11-14T09:01:05.254Z,100976.81
2022-11-14T09:03:33.030Z,100976.81
2022-11-14T09:06:00.737Z,100970.09
2022-11-14T09:08:29.796Z,100979.16
2022-11-14T09:11:05.133Z,100968.97
2022-11-14T09:13:34.917Z,100973.19
2022-11-14T09:16:02.423Z,100972.03
2022-11-14T09:18:31.183Z,100960.78
2022-11-14T09:21:07.818Z,100956.66
2022-11-14T09:23:35.294Z,100961.59
2022-11-14T09:26:08.199Z,100951.22
2022-11-14T09:28:35.529Z,100951.63
2022-11-14T09:31:12.575Z,100956.56
2022-11-14T09:33:39.731Z,100958.13
2022-11-14T09:36:11.326Z,100954.13
2022-11-14T09:38:38.843Z,100953.41
2022-11-14T09:41:31.029Z,100937.66
2022-11-14T09:44:41.035Z,100942.69
2022-11-14T09:47:37.026Z,100957.28
2022-11-14T09:50:18.728Z,100944.66
2022-11-14T09:52:55.128Z,100943.75
2022-11-14T09:55:32.228Z,100946.72
2022-11-14T09:58:03.859Z,100943.31
2022-11-14T10:00:54.501Z,100942.28
2022-11-14T10:03:46.383Z,100941.13
2022-11-14T10:06:31.188Z,100939.13
2022-11-14T10:09:49.568Z,100945.88
2022-11-14T10:12:55.711Z,100947.41
2022-11-14T10:15:34.056Z,100951.34
2022-11-14T10:18:19.638Z,100946.78
2022-11-14T10:20:58.604Z,100941.59
2022-11-14T10:24:26.556Z,100951.84
2022-11-14T10:27:04.027Z,100940.59
2022-11-14T10:29:42.144Z,100944.22
2022-11-14T10:32:50.862Z,100937.84
2022-11-14T10:35:23.900Z,100940.56
2022-11-14T10:38:18.428Z,100939.81
2022-11-14T10:40:51.078Z,100931.31
2022-11-14T10:43:37.114Z,100943.22
2022-11-14T10:46:31.213Z,100937.72
2022-11-14T10:49:00.487Z,100925.63
2022-11-14T10:51:36.672Z,100913.47
2022-11-14T10:54:31.306Z,100918.81
2022-11-14T10:56:58.926Z,100912.72
2022-11-14T10:59:27.727Z,100902.66
2022-11-14T11:01:58.024Z,100919.00
2022-11-14T11:04:27.534Z,100916.38
2022-11-14T11:07:39.042Z,100905.56
2022-11-14T11:10:25.785Z,100910.22
2022-11-14T11:12:55.099Z,100901.94
2022-11-14T11:15:31.604Z,100896.38
2022-11-14T11:18:33.497Z,100897.91
2022-11-14T11:21:10.405Z,100898.16
2022-11-14T11:23:53.207Z,100901.97
2022-11-14T11:26:28.606Z,100890.47
2022-11-14T11:29:10.918Z,100896.91
2022-11-14T11:31:59.000Z,100902.03
2022-11-14T11:34:28.837Z,100898.94
2022-11-14T11:37:18.705Z,100904.09
2022-11-14T11:39:54.165Z,100906.19
2022-11-14T11:45:26.149Z,100901.69
2022-11-14T11:48:09.941Z,100898.34
2022-11-14T11:50:37.108Z,100906.94
2022-11-14T11:53:29.479Z,100905.53
2022-11-14T11:56:13.795Z,100903.53
2022-11-14T11:58:49.911Z,100902.31
2022-11-14T12:01:17.442Z,100902.78
2022-11-14T12:03:51.007Z,100894.44
2022-11-14T12:06:27.336Z,100892.41
2022-11-14T12:09:21.922Z,100895.72
2022-11-14T12:12:39.616Z,100899.00
2022-11-14T12:15:44.589Z,100905.31
2022-11-14T12:18:53.684Z,100901.34
2022-11-14T12:21:45.353Z,100881.41
2022-11-14T12:25:01.364Z,100895.44
2022-11-14T12:28:17.225Z,100901.00
2022-11-14T12:30:50.998Z,100898.09
2022-11-14T12:33:34.563Z,100894.44
2022-11-14T12:36:10.104Z,100879.91
2022-11-14T12:38:51.292Z,100882.00
2022-11-14T12:41:34.938Z,100888.72
2022-11-14T12:44:26.849Z,100893.41
2022-11-14T12:47:05.680Z,100876.06
2022-11-14T12:49:47.595Z,100877.00
2022-11-14T12:52:48.775Z,100861.81
2022-11-14T12:55:24.544Z,100874.47
2022-11-14T12:58:12.752Z,100868.75
2022-11-14T13:00:45.816Z,100872.94
2022-11-14T13:03:53.543Z,100860.19
2022-11-14T13:06:34.603Z,100856.06
2022-11-14T13:09:34.145Z,100847.63
2022-11-14T13:12:53.128Z,100839.94
2022-11-14T13:15:50.904Z,100842.53
2022-11-14T13:18:41.637Z,100837.97
2022-11-14T13:21:45.677Z,100837.97
2022-11-14T13:24:18.870Z,100829.63
2022-11-14T13:26:51.998Z,100815.22
2022-11-14T13:29:40.591Z,100815.69
2022-11-14T13:32:11.821Z,100818.22
2022-11-14T13:34:59.768Z,100814.50
2022-11-14T13:38:00.442Z,100808.91
2022-11-14T13:41:27.268Z,100814.63
2022-11-14T13:44:15.312Z,100811.09
2022-11-14T13:46:54.846Z,100810.75
2022-11-14T13:50:08.111Z,100808.38
2022-11-14T13:52:43.581Z,100812.09
2022-11-14T13:55:38.830Z,100812.91
2022-11-14T13:58:38.997Z,100799.66
2022-11-14T14:01:41.499Z,100802.06
2022-11-14T14:04:58.703Z,100800.50
2022-11-14T14:07:49.380Z,100790.63
2022-11-14T14:10:50.367Z,100795.03
2022-11-14T14:13:54.013Z,100786.94
2022-11-14T14:16:46.848Z,100796.28
2022-11-14T14:19:29.588Z,100790.97
2022-11-14T14:22:18.855Z,100783.59
2022-11-14T14:25:17.320Z,100790.56
2022-11-14T14:28:40.482Z,100784.03
2022-11-14T14:31:07.300Z,100786.97
2022-11-14T14:33:46.725Z,100786.28
2022-11-14T14:36:25.756Z,100786.81
2022-11-14T14:39:18.417Z,100783.94
2022-11-14T14:41:46.212Z,100785.75
2022-11-14T14:44:37.890Z,100777.97
2022-11-14T14:47:33.248Z,100780.66
2022-11-14T14:50:13.299Z,100778.66
2022-11-14T14:52:40.220Z,100788.31
2022-11-14T14:55:28.140Z,100784.44
2022-11-14T14:57:55.197Z,100778.31
2022-11-14T15:00:26.634Z,100776.25
2022-11-14T15:02:57.358Z,100784.03
2022-11-14T15:05:29.712Z,100785.47
2022-11-14T15:08:00.741Z,100785.47
2022-11-14T15:10:30.371Z,100775.28
2022-11-14T15:12:58.365Z,100784.31
2022-11-14T15:15:27.628Z,100778.56
2022-11-14T15:17:56.189Z,100779.16
2022-11-14T15:20:29.511Z,100771.28
2022-11-14T15:23:14.382Z,100766.31
2022-11-14T15:25:42.749Z,100759.28
2022-11-14T15:28:17.411Z,100761.78
2022-11-14T15:30:59.129Z,100760.22
2022-11-14T15:33:35.203Z,100761.25
2022-11-14T15:36:12.350Z,100764.06
2022-11-14T15:38:46.422Z,100758.72
2022-11-14T15:41:27.915Z,100761.09
2022-11-14T15:44:01.813Z,100752.28
2022-11-14T15:46:35.816Z,100743.81
2022-11-14T15:49:14.476Z,100742.22
2022-11-14T15:51:47.679Z,100738.63
2022-11-14T15:54:33.476Z,100740.06
2022-11-14T15:57:14.812Z,100737.09
2022-11-14T15:59:42.192Z,100732.84
2022-11-14T16:02:29.879Z,100730.13
2022-11-14T16:04:59.130Z,100735.00
2022-11-14T16:07:26.377Z,100737.72
2022-11-14T16:09:53.393Z,100739.97
2022-11-14T16:12:20.311Z,100745.56
2022-11-14T16:14:48.422Z,100746.91
2022-11-14T16:17:17.968Z,100745.47
2022-11-14T16:19:45.042Z,100739.94
2022-11-14T16:22:18.322Z,100731.69
2022-11-14T16:24:45.326Z,100737.63
2022-11-14T16:27:12.201Z,100737.22
2022-11-14T16:29:39.141Z,100741.72
2022-11-14T16:32:06.053Z,100731.84
2022-11-14T16:34:32.960Z,100739.34
2022-11-14T16:37:03.299Z,100739.94
2022-11-14T16:39:30.324Z,100733.31
2022-11-14T16:42:04.716Z,100723.53
2022-11-14T16:44:37.239Z,100734.25
2022-11-14T16:47:07.226Z,100724.75
2022-11-14T16:49:34.118Z,100724.34
2022-11-14T16:52:05.539Z,100728.16
2022-11-14T16:54:33.503Z,100727.59
2022-11-14T16:57:00.435Z,100711.25
2022-11-14T16:59:27.385Z,100721.63
2022-11-14T17:01:54.385Z,100731.19
2022-11-14T17:04:21.477Z,100733.78
2022-11-14T17:06:48.769Z,100729.19
2022-11-14T17:09:15.881Z,100731.75
2022-11-14T17:11:44.648Z,100743.50
2022-11-14T17:14:12.207Z,100745.25
2022-11-14T17:16:39.260Z,100739.19
2022-11-14T17:19:06.526Z,100740.06
2022-11-14T17:21:33.526Z,100729.91
2022-11-14T17:24:01.655Z,100737.41
2022-11-14T17:26:29.503Z,100730.63
2022-11-14T17:28:56.899Z,100746.06
2022-11-14T17:31:25.041Z,100747.47
2022-11-14T17:33:54.218Z,100733.91
2022-11-14T17:36:23.098Z,100736.88
2022-11-14T17:38:50.357Z,100740.84
2022-11-14T17:41:18.184Z,100743.97
2022-11-14T17:43:45.471Z,100744.38
2022-11-14T17:46:15.932Z,100747.63
2022-11-14T17:48:44.854Z,100748.38
2022-11-14T17:51:14.923Z,100750.63
2022-11-14T17:53:42.601Z,100745.13
2022-11-14T17:56:21.662Z,100747.09
2022-11-14T17:58:51.740Z,100750.25
2022-11-14T18:01:23.247Z,100745.13
2022-11-14T18:03:50.587Z,100750.81
2022-11-14T18:06:20.449Z,100754.50
2022-11-14T18:08:49.188Z,100755.38
2022-11-14T18:11:17.883Z,100760.78
2022-11-14T18:13:45.106Z,100742.69
2022-11-14T18:16:18.367Z,100740.59
2022-11-14T18:18:45.696Z,100739.81
2022-11-14T18:21:19.347Z,100732.66
2022-11-14T18:23:58.605Z,100736.41
2022-11-14T18:26:28.762Z,100735.38
2022-11-14T18:29:01.162Z,100742.75
2022-11-14T18:31:28.958Z,100741.75
2022-11-14T18:33:56.603Z,100743.41
2022-11-14T18:36:24.187Z,100731.09
2022-11-14T18:38:51.416Z,100733.75
2022-11-14T18:41:23.800Z,100723.84
2022-11-14T18:43:55.223Z,100731.88
2022-11-14T18:46:24.265Z,100740.56
2022-11-14T18:48:59.791Z,100732.53
2022-11-14T18:51:30.930Z,100733.38
2022-11-14T18:53:59.324Z,100734.84
2022-11-14T18:56:26.705Z,100726.16
2022-11-14T18:58:57.392Z,100717.28
2022-11-14T19:01:29.245Z,100725.81
2022-11-14T19:04:03.870Z,100717.94
2022-11-14T19:06:32.605Z,100720.22
2022-11-14T19:09:11.156Z,100716.94
2022-11-14T19:11:57.373Z,100714.50
2022-11-14T19:14:24.511Z,100708.91
2022-11-14T19:16:51.376Z,100706.78
2022-11-14T19:19:18.304Z,100716.78
2022-11-14T19:21:50.270Z,100710.53
2022-11-14T19:24:17.843Z,100706.66
2022-11-14T19:26:45.075Z,100701.28
2022-11-14T19:29:14.997Z,100701.34
2022-11-14T19:31:42.921Z,100701.56
2022-11-14T19:34:10.255Z,100707.34
2022-11-14T19:36:58.862Z,100708.09
2022-11-14T19:39:25.784Z,100703.84
2022-11-14T19:41:52.720Z,100700.56
2022-11-14T19:44:19.820Z,100694.97
2022-11-14T19:46:48.105Z,100692.69
2022-11-14T19:49:15.770Z,100690.22
2022-11-14T19:51:42.792Z,100684.47
2022-11-14T19:54:11.077Z,100691.66
2022-11-14T19:56:38.391Z,100688.88
2022-11-14T19:59:09.657Z,100705.72
2022-11-14T20:01:42.125Z,100686.00
2022-11-14T20:04:13.315Z,100687.63
2022-11-14T20:06:41.664Z,100689.44
2022-11-14T20:09:10.841Z,100689.31
2022-11-14T20:11:38.169Z,100680.22
2022-11-14T20:14:05.800Z,100686.16
2022-11-14T20:16:35.807Z,100681.63
2022-11-14T20:19:06.019Z,100685.31
2022-11-14T20:21:34.910Z,100675.34
2022-11-14T20:24:02.042Z,100670.59
2022-11-14T20:26:29.014Z,100669.50
2022-11-14T20:28:55.995Z,100670.38
2022-11-14T20:31:29.832Z,100673.69
2022-11-14T20:33:57.187Z,100664.69
2022-11-14T20:36:29.453Z,100660.81
2022-11-14T20:39:06.275Z,100662.31
2022-11-14T20:41:34.010Z,100659.25
2022-11-14T20:44:03.432Z,100669.53
2022-11-14T20:46:30.415Z,100662.50
2022-11-14T20:48:57.428Z,100668.09
2022-11-14T20:51:25.795Z,100660.97
2022-11-14T20:53:55.009Z,100653.53
2022-11-14T20:56:23.411Z,100657.28
2022-11-14T20:58:54.656Z,100646.78
2022-11-14T21:01:22.005Z,100644.81
2022-11-14T21:03:49.155Z,100653.69
2022-11-14T21:06:17.263Z,100643.59
2022-11-14T21:08:44.385Z,100638.47
2022-11-14T21:11:18.272Z,100632.03
2022-11-14T21:13:58.540Z,100634.22
2022-11-14T21:16:33.072Z,100631.41
2022-11-14T21:19:01.242Z,100623.25
2022-11-14T21:21:30.443Z,100632.53
2022-11-14T21:23:58.053Z,100633.03
2022-11-14T21:26:33.564Z,100624.28
2022-11-14T21:29:11.109Z,100627.97
2022-11-14T21:31:44.579Z,100625.06
2022-11-14T21:34:18.028Z,100630.13
2022-11-14T21:36:46.755Z,100626.19
2022-11-14T21:39:16.434Z,100634.69
2022-11-14T21:41:45.715Z,100623.63
2022-11-14T21:44:16.648Z,100618.97
2022-11-14T21:46:46.392Z,100616.88
2022-11-14T21:49:13.311Z,100633.16
2022-11-14T21:51:40.227Z,100625.94
2022-11-14T21:54:07.409Z,100612.38
2022-11-14T21:56:37.173Z,100620.75
2022-11-14T21:59:16.049Z,100618.06
2022-11-14T22:02:05.362Z,100617.59
2022-11-14T22:04:33.414Z,100603.81
2022-11-14T22:07:03.739Z,100596.34
2022-11-14T22:09:31.371Z,100604.06
2022-11-14T22:11:59.280Z,100596.19
2022-11-14T22:14:26.304Z,100596.09
2022-11-14T22:16:53.202Z,100583.88
2022-11-14T22:19:20.232Z,100588.31
2022-11-14T22:21:47.158Z,100600.28
2022-11-14T22:24:14.042Z,100588.47
2022-11-14T22:26:41.427Z,100581.66
2022-11-14T22:29:09.180Z,100589.00
2022-11-14T22:31:37.895Z,100589.25
2022-11-14T22:34:05.342Z,100586.25
2022-11-14T22:36:33.308Z,100587.88
2022-11-14T22:39:00.209Z,100589.44
2022-11-14T22:41:32.733Z,100592.09
2022-11-14T22:44:01.337Z,100601.81
2022-11-14T22:46:29.913Z,100600.63
2022-11-14T22:48:58.286Z,100595.56
2022-11-14T22:51:27.641Z,100596.09
2022-11-14T22:53:57.499Z,100596.09
2022-11-14T22:56:28.561Z,100591.09
2022-11-14T22:58:56.299Z,100589.75
2022-11-14T23:01:31.136Z,100591.75
2022-11-14T23:04:02.010Z,100602.72
2022-11-14T23:06:31.295Z,100595.75
2022-11-14T23:08:58.829Z,100597.75
2022-11-14T23:11:30.222Z,100603.69
2022-11-14T23:13:59.408Z,100601.53
2022-11-14T23:16:30.115Z,100594.22
2022-11-14T23:19:00.240Z,100601.94
2022-11-14T23:21:31.602Z,100606.50
2022-11-14T23:24:03.476Z,100601.31
2022-11-14T23:26:32.563Z,100606.00
2022-11-14T23:29:00.104Z,100601.63
2022-11-14T23:31:27.251Z,100592.75
2022-11-14T23:33:56.044Z,100597.59
2022-11-14T23:36:22.981Z,100598.13
2022-11-14T23:38:53.598Z,100593.69
2022-11-14T23:41:25.396Z,100592.06
2022-11-14T23:43:52.495Z,100588.28
2022-11-14T23:46:19.500Z,100599.66
2022-11-14T23:48:46.412Z,100598.41
2022-11-14T23:51:13.901Z,100585.72
2022-11-14T23:53:41.659Z,100598.03
2022-11-14T23:56:13.387Z,100589.66
2022-11-14T23:58:41.598Z,100597.66
